createdAt,value
2022-12-24T00:00:43.406Z,100270.69
2022-12-24T00:03:13.422Z,100270.69
2022-12-24T00:05:43.396Z,100270.03
2022-12-24T00:08:13.150Z,100264.09
2022-12-24T00:10:42.910Z,100267.69
2022-12-24T00:13:15.283Z,100270.28
2022-12-24T00:15:45.027Z,100279.03
2022-12-24T00:18:14.818Z,100272.97
2022-12-24T00:20:45.324Z,100265.88
2022-12-24T00:23:15.046Z,100258.88
2022-12-24T00:25:44.986Z,100268.50
2022-12-24T00:28:18.038Z,100269.44
2022-12-24T00:30:47.804Z,100273.88
2022-12-24T00:33:24.155Z,100287.91
2022-12-24T00:35:55.314Z,100275.63
2022-12-24T00:38:25.032Z,100277.44
2022-12-24T00:40:54.834Z,100287.13
2022-12-24T00:43:27.272Z,100288.13
2022-12-24T00:45:57.285Z,100286.38
2022-12-24T00:48:27.269Z,100294.31
2022-12-24T00:50:57.096Z,100295.19
2022-12-24T00:53:26.938Z,100297.88
2022-12-24T00:55:56.868Z,100295.25
2022-12-24T00:58:29.401Z,100287.41
2022-12-24T01:00:59.240Z,100296.06
2022-12-24T01:03:37.214Z,100294.41
2022-12-24T01:06:06.008Z,100308.34
2022-12-24T01:08:36.576Z,100310.94
2022-12-24T01:11:07.961Z,100307.50
2022-12-24T01:13:40.474Z,100309.41
2022-12-24T01:16:18.750Z,100306.00
2022-12-24T01:18:48.890Z,100312.94
2022-12-24T01:21:18.969Z,100318.16
2022-12-24T01:23:48.783Z,100319.09
2022-12-24T01:26:18.691Z,100322.59
2022-12-24T01:28:51.080Z,100327.94
2022-12-24T01:31:22.791Z,100329.69
2022-12-24T01:33:52.710Z,100322.78
2022-12-24T01:36:22.510Z,100324.44
2022-12-24T01:38:52.387Z,100323.47
2022-12-24T01:41:37.072Z,100334.81
2022-12-24T01:44:38.078Z,100334.13
2022-12-24T01:47:14.399Z,100338.50
2022-12-24T01:49:48.074Z,100345.66
2022-12-24T01:52:22.744Z,100340.59
2022-12-24T01:54:55.046Z,100344.28
2022-12-24T01:57:29.243Z,100343.53
2022-12-24T02:00:06.071Z,100345.38
2022-12-24T02:02:36.603Z,100351.47
2022-12-24T02:05:10.954Z,100350.63
2022-12-24T02:07:41.246Z,100352.44
2022-12-24T02:10:13.557Z,100363.94
2022-12-24T02:12:44.783Z,100370.19
2022-12-24T02:15:19.881Z,100367.75
2022-12-24T02:17:59.577Z,100375.78
2022-12-24T02:20:55.332Z,100376.72
2022-12-24T02:23:43.288Z,100383.81
2022-12-24T02:26:37.403Z,100383.91
2022-12-24T02:29:40.975Z,100383.03
2022-12-24T02:32:17.876Z,100379.44
2022-12-24T02:34:53.366Z,100389.81
2022-12-24T02:37:29.042Z,100400.28
2022-12-24T02:40:08.064Z,100404.69
2022-12-24T02:42:44.924Z,100403.09
2022-12-24T02:45:18.774Z,100394.44
2022-12-24T02:47:53.596Z,100402.41
2022-12-24T02:50:23.495Z,100405.13
2022-12-24T02:52:53.720Z,100405.22
2022-12-24T02:55:29.809Z,100403.50
2022-12-24T02:58:17.738Z,100406.19
2022-12-24T03:01:16.424Z,100404.34
2022-12-24T03:04:03.513Z,100404.06
2022-12-24T03:06:44.534Z,100415.31
2022-12-24T03:09:25.199Z,100417.09
2022-12-24T03:12:00.469Z,100412.81
2022-12-24T03:14:34.186Z,100426.88
2022-12-24T03:17:06.766Z,100421.69
2022-12-24T03:19:39.570Z,100430.47
2022-12-24T03:22:14.476Z,100431.41
2022-12-24T03:24:44.247Z,100441.91
2022-12-24T03:27:15.527Z,100441.19
2022-12-24T03:29:45.284Z,100444.78
2022-12-24T03:32:15.175Z,100441.38
2022-12-24T03:34:47.546Z,100445.88
2022-12-24T03:37:17.281Z,100453.88
2022-12-24T03:39:47.047Z,100447.78
2022-12-24T03:42:16.850Z,100451.34
2022-12-24T03:44:46.885Z,100450.50
2022-12-24T03:47:16.643Z,100447.06
2022-12-24T03:49:49.027Z,100455.03
2022-12-24T03:52:18.824Z,100446.31
2022-12-24T03:54:48.551Z,100451.63
2022-12-24T03:57:18.563Z,100460.44
2022-12-24T03:59:48.299Z,100457.81
2022-12-24T04:02:18.288Z,100452.59
2022-12-24T04:04:50.825Z,100455.25
2022-12-24T04:07:20.632Z,100457.03
2022-12-24T04:09:50.375Z,100457.88
2022-12-24T04:12:20.181Z,100459.66
2022-12-24T04:14:50.653Z,100463.09
2022-12-24T04:17:20.658Z,100461.53
2022-12-24T04:19:53.125Z,100466.78
2022-12-24T04:22:22.891Z,100474.66
2022-12-24T04:24:52.645Z,100475.44
2022-12-24T04:27:26.846Z,100477.09
2022-12-24T04:30:00.038Z,100487.56
2022-12-24T04:32:29.961Z,100479.69
2022-12-24T04:35:02.334Z,100481.34
2022-12-24T04:37:32.131Z,100483.00
2022-12-24T04:40:01.900Z,100483.78
2022-12-24T04:42:31.684Z,100477.66
2022-12-24T04:45:01.439Z,100490.69
2022-12-24T04:47:31.174Z,100487.19
2022-12-24T04:50:03.871Z,100480.28
2022-12-24T04:52:33.729Z,100477.66
2022-12-24T04:55:03.602Z,100485.59
2022-12-24T04:57:35.833Z,100487.34
2022-12-24T05:00:06.215Z,100491.81
2022-12-24T05:02:36.504Z,100499.78
2022-12-24T05:05:09.878Z,100499.84
2022-12-24T05:07:39.611Z,100506.97
2022-12-24T05:10:11.199Z,100506.09
2022-12-24T05:12:40.967Z,100513.16
2022-12-24T05:15:11.275Z,100514.09
2022-12-24T05:17:41.031Z,100513.28
2022-12-24T05:20:13.924Z,100514.22
2022-12-24T05:22:56.064Z,100526.56
2022-12-24T05:25:38.493Z,100527.50
2022-12-24T05:28:08.724Z,100531.91
2022-12-24T05:30:38.535Z,100531.06
2022-12-24T05:33:08.390Z,100532.00
2022-12-24T05:35:40.853Z,100523.38
2022-12-24T05:38:10.671Z,100528.69
2022-12-24T05:40:40.432Z,100527.81
2022-12-24T05:43:10.195Z,100538.38
2022-12-24T05:45:39.939Z,100548.00
2022-12-24T05:48:09.988Z,100542.78
2022-12-24T05:50:43.234Z,100548.97
2022-12-24T05:53:13.071Z,100553.44
2022-12-24T05:55:42.876Z,100551.81
2022-12-24T05:58:12.884Z,100557.13
2022-12-24T06:00:42.754Z,100558.88
2022-12-24T06:03:12.577Z,100560.72
2022-12-24T06:05:45.018Z,100557.28
2022-12-24T06:08:14.779Z,100560.72
2022-12-24T06:10:44.593Z,100559.84
2022-12-24T06:13:14.388Z,100566.03
2022-12-24T06:15:44.205Z,100557.31
2022-12-24T06:18:13.993Z,100561.84
2022-12-24T06:20:46.471Z,100560.13
2022-12-24T06:23:16.583Z,100570.59
2022-12-24T06:25:46.361Z,100562.81
2022-12-24T06:28:16.147Z,100580.28
2022-12-24T06:30:50.101Z,100591.66
2022-12-24T06:33:20.842Z,100585.53
2022-12-24T06:35:53.262Z,100591.72
2022-12-24T06:38:23.143Z,100595.16
2022-12-24T06:40:53.143Z,100596.06
2022-12-24T06:43:22.874Z,100610.91
2022-12-24T06:45:53.666Z,100610.78
2022-12-24T06:48:23.431Z,100610.78
2022-12-24T06:50:56.008Z,100609.94
2022-12-24T06:53:26.121Z,100612.56
2022-12-24T06:55:55.869Z,100617.88
2022-12-24T06:58:25.852Z,100611.84
2022-12-24T07:00:56.102Z,100630.22
2022-12-24T07:03:26.456Z,100620.59
2022-12-24T07:05:59.594Z,100618.88
2022-12-24T07:08:29.518Z,100626.81
2022-12-24T07:10:59.270Z,100634.59
2022-12-24T07:13:29.382Z,100628.47
2022-12-24T07:16:02.479Z,100641.59
2022-12-24T07:18:32.833Z,100633.53
2022-12-24T07:21:06.428Z,100644.88
2022-12-24T07:23:36.378Z,100645.69
2022-12-24T07:26:08.585Z,100651.69
2022-12-24T07:28:38.422Z,100646.25
2022-12-24T07:31:08.593Z,100645.25
2022-12-24T07:33:43.808Z,100650.50
2022-12-24T07:36:21.933Z,100648.50
2022-12-24T07:38:54.562Z,100658.97
2022-12-24T07:41:27.699Z,100666.72
2022-12-24T07:43:59.439Z,100668.31
2022-12-24T07:46:29.313Z,100682.19
2022-12-24T07:48:59.227Z,100680.25
2022-12-24T07:51:31.744Z,100690.75
2022-12-24T07:54:02.015Z,100695.06
2022-12-24T07:56:31.975Z,100699.47
2022-12-24T07:59:52.245Z,100706.47
2022-12-24T08:02:22.511Z,100708.97
2022-12-24T08:05:00.133Z,100712.47
2022-12-24T08:07:34.873Z,100713.41
2022-12-24T08:10:14.204Z,100706.44
2022-12-24T08:12:48.413Z,100731.88
2022-12-24T08:15:18.218Z,100734.50
2022-12-24T08:17:48.198Z,100738.00
2022-12-24T08:20:19.131Z,100739.72
2022-12-24T08:22:51.650Z,100735.44
2022-12-24T08:25:21.697Z,100745.94
2022-12-24T08:27:51.624Z,100749.44
2022-12-24T08:30:21.704Z,100757.38
2022-12-24T08:32:51.702Z,100755.69
2022-12-24T08:35:21.434Z,100762.75
2022-12-24T08:37:53.793Z,100775.09
2022-12-24T08:40:23.634Z,100769.88
2022-12-24T08:42:53.476Z,100780.50
2022-12-24T08:45:23.313Z,100768.34
2022-12-24T08:47:53.270Z,100775.44
2022-12-24T08:50:24.600Z,100770.34
2022-12-24T08:53:03.122Z,100771.22
2022-12-24T08:55:32.903Z,100782.59
2022-12-24T08:58:03.473Z,100779.13
2022-12-24T09:00:33.289Z,100793.09
2022-12-24T09:03:03.119Z,100793.97
2022-12-24T09:05:33.458Z,100792.19
2022-12-24T09:08:05.891Z,100807.09
2022-12-24T09:10:35.632Z,100818.53
2022-12-24T09:13:05.442Z,100818.53
2022-12-24T09:15:35.328Z,100814.19
2022-12-24T09:18:05.653Z,100816.88
2022-12-24T09:20:35.413Z,100823.00
2022-12-24T09:23:07.782Z,100818.66
2022-12-24T09:25:37.517Z,100822.25
2022-12-24T09:28:07.691Z,100829.41
2022-12-24T09:30:37.435Z,100824.41
2022-12-24T09:33:07.264Z,100833.34
2022-12-24T09:35:37.063Z,100835.25
2022-12-24T09:38:09.553Z,100837.22
2022-12-24T09:40:41.423Z,100833.00
2022-12-24T09:43:19.928Z,100842.78
2022-12-24T09:46:07.154Z,100849.09
2022-12-24T09:48:40.911Z,100846.59
2022-12-24T09:51:12.831Z,100847.66
2022-12-24T09:53:51.201Z,100847.94
2022-12-24T09:56:25.300Z,100840.16
2022-12-24T09:59:01.503Z,100843.00
2022-12-24T10:01:33.532Z,100851.03
2022-12-24T10:04:07.025Z,100856.38
2022-12-24T10:06:43.240Z,100865.22
2022-12-24T10:09:24.645Z,100865.22
2022-12-24T10:12:03.957Z,100869.63
2022-12-24T10:14:48.510Z,100872.25
2022-12-24T10:17:39.351Z,100867.00
2022-12-24T10:20:27.576Z,100864.38
2022-12-24T10:23:06.308Z,100872.31
2022-12-24T10:25:45.302Z,100871.47
2022-12-24T10:28:18.716Z,100872.50
2022-12-24T10:30:51.983Z,100869.03
2022-12-24T10:33:29.778Z,100868.25
2022-12-24T10:36:05.397Z,100872.78
2022-12-24T10:38:38.142Z,100871.16
2022-12-24T10:41:11.529Z,100874.84
2022-12-24T10:43:43.711Z,100871.53
2022-12-24T10:46:21.648Z,100880.31
2022-12-24T10:48:56.435Z,100876.09
2022-12-24T10:51:33.642Z,100875.31
2022-12-24T10:54:09.721Z,100879.00
2022-12-24T10:56:48.091Z,100880.00
2022-12-24T10:59:29.643Z,100888.06
2022-12-24T11:02:01.055Z,100887.28
2022-12-24T11:04:34.147Z,100881.25
2022-12-24T11:07:06.816Z,100883.09
2022-12-24T11:09:39.599Z,100892.03
2022-12-24T11:12:21.743Z,100882.41
2022-12-24T11:15:01.958Z,100872.81
2022-12-24T11:17:32.552Z,100888.63
2022-12-24T11:20:03.529Z,100879.91
2022-12-24T11:22:35.329Z,100887.91
2022-12-24T11:25:22.253Z,100887.00
2022-12-24T11:27:54.688Z,100891.38
2022-12-24T11:30:28.234Z,100881.69
2022-12-24T11:33:20.736Z,100876.44
2022-12-24T11:35:55.690Z,100881.59
2022-12-24T11:38:28.154Z,100889.47
2022-12-24T11:41:13.300Z,100882.53
2022-12-24T11:43:48.043Z,100891.31
2022-12-24T11:46:22.252Z,100889.66
2022-12-24T11:49:08.197Z,100896.63
2022-12-24T11:51:38.359Z,100897.47
2022-12-24T11:54:19.451Z,100892.19
2022-12-24T11:56:53.055Z,100900.09
2022-12-24T11:59:29.434Z,100906.28
2022-12-24T12:02:05.652Z,100907.97
2022-12-24T12:04:39.079Z,100910.50
2022-12-24T12:07:15.464Z,100906.03
2022-12-24T12:09:51.156Z,100915.47
2022-12-24T12:12:26.093Z,100921.50
2022-12-24T12:15:01.997Z,100920.63
2022-12-24T12:17:36.778Z,100928.59
2022-12-24T12:20:14.163Z,100930.44
2022-12-24T12:22:52.423Z,100934.84
2022-12-24T12:25:26.367Z,100949.72
2022-12-24T12:27:59.511Z,100945.34
2022-12-24T12:30:33.702Z,100943.53
2022-12-24T12:33:12.339Z,100960.19
2022-12-24T12:35:44.929Z,100965.50
2022-12-24T12:38:16.965Z,100963.75
2022-12-24T12:41:12.079Z,100972.53
2022-12-24T12:44:17.537Z,100969.00
2022-12-24T12:47:03.187Z,100966.41
2022-12-24T12:49:42.871Z,100966.28
2022-12-24T12:52:22.112Z,100965.28
2022-12-24T12:55:05.240Z,100979.19
2022-12-24T12:57:39.562Z,100979.06
2022-12-24T13:00:13.260Z,100985.16
2022-12-24T13:02:59.708Z,100982.47
2022-12-24T13:05:52.199Z,100985.94
2022-12-24T13:08:41.704Z,100984.16
2022-12-24T13:11:33.300Z,100984.09
2022-12-24T13:14:26.968Z,100988.47
2022-12-24T13:17:20.768Z,100995.38
2022-12-24T13:20:15.069Z,100987.44
2022-12-24T13:22:51.834Z,100997.00
2022-12-24T13:25:25.861Z,101003.16
2022-12-24T13:27:56.030Z,101004.88
2022-12-24T13:30:39.110Z,101014.53
2022-12-24T13:33:13.383Z,101026.72
2022-12-24T13:36:04.164Z,101018.84
2022-12-24T13:38:43.762Z,101019.72
2022-12-24T13:41:43.529Z,101023.31
2022-12-24T13:44:25.566Z,101025.13
2022-12-24T13:46:59.616Z,101028.63
2022-12-24T13:49:34.000Z,101033.91
2022-12-24T13:52:28.879Z,101039.97
2022-12-24T13:55:20.272Z,101040.75
2022-12-24T13:57:58.699Z,101039.84
2022-12-24T14:00:34.503Z,101045.09
2022-12-24T14:03:08.805Z,101055.59
2022-12-24T14:05:42.318Z,101052.09
2022-12-24T14:08:17.744Z,101063.50
2022-12-24T14:11:06.654Z,101059.19
2022-12-24T14:14:06.158Z,101067.16
2022-12-24T14:16:46.024Z,101075.84
2022-12-24T14:19:17.989Z,101087.25
2022-12-24T14:21:55.859Z,101083.69
2022-12-24T14:24:34.682Z,101090.66
2022-12-24T14:27:17.473Z,101076.63
2022-12-24T14:29:53.622Z,101087.97
2022-12-24T14:32:23.435Z,101087.97
2022-12-24T14:35:09.580Z,101089.75
2022-12-24T14:37:41.213Z,101094.97
2022-12-24T14:40:19.325Z,101101.22
2022-12-24T14:42:59.125Z,101104.72
2022-12-24T14:45:36.442Z,101120.47
2022-12-24T14:48:17.941Z,101121.34
2022-12-24T14:51:10.045Z,101123.97
2022-12-24T14:54:08.361Z,101133.59
2022-12-24T14:56:40.991Z,101142.28
2022-12-24T14:59:18.443Z,101143.13
2022-12-24T15:01:48.683Z,101150.94
2022-12-24T15:04:20.250Z,101161.38
2022-12-24T15:06:53.825Z,101157.81
2022-12-24T15:09:25.627Z,101166.47
2022-12-24T15:12:00.380Z,101164.53
2022-12-24T15:14:33.817Z,101161.56
2022-12-24T15:17:06.998Z,101163.13
2022-12-24T15:19:40.241Z,101166.38
2022-12-24T15:22:13.540Z,101175.03
2022-12-24T15:24:49.201Z,101175.72
2022-12-24T15:27:23.603Z,101173.63
2022-12-24T15:29:56.339Z,101180.50
2022-12-24T15:32:26.888Z,101191.69
2022-12-24T15:35:00.389Z,101189.81
2022-12-24T15:37:32.564Z,101181.81
2022-12-24T15:40:09.963Z,101203.47
2022-12-24T15:42:45.392Z,101190.19
2022-12-24T15:45:26.677Z,101205.72
2022-12-24T15:47:59.938Z,101197.53
2022-12-24T15:50:33.576Z,101203.50
2022-12-24T15:53:20.300Z,101207.56
2022-12-24T15:56:04.805Z,101204.72
2022-12-24T15:58:39.170Z,101203.59
2022-12-24T16:01:30.649Z,101221.00
2022-12-24T16:04:02.971Z,101225.22
2022-12-24T16:07:01.948Z,101232.00
2022-12-24T16:09:49.579Z,101223.03
2022-12-24T16:12:23.310Z,101230.75
2022-12-24T16:14:59.178Z,101229.88
2022-12-24T16:17:31.673Z,101236.75
2022-12-24T16:20:10.519Z,101231.47
2022-12-24T16:22:42.044Z,101237.47
2022-12-24T16:25:26.219Z,101240.09
2022-12-24T16:28:00.325Z,101242.47
2022-12-24T16:30:33.454Z,101249.38
2022-12-24T16:33:03.290Z,101239.53
2022-12-24T16:35:36.719Z,101245.53
2022-12-24T16:38:06.891Z,101240.16
2022-12-24T16:40:36.652Z,101252.38
2022-12-24T16:43:18.826Z,101249.66
2022-12-24T16:45:52.370Z,101257.47
2022-12-24T16:48:25.524Z,101257.47
2022-12-24T16:50:56.958Z,101260.09
2022-12-24T16:53:27.274Z,101256.53
2022-12-24T16:55:57.609Z,101260.97
2022-12-24T16:58:27.550Z,101260.13
2022-12-24T17:01:00.061Z,101254.84
2022-12-24T17:03:29.892Z,101254.75
2022-12-24T17:06:00.704Z,101253.84
2022-12-24T17:08:30.465Z,101266.97
2022-12-24T17:11:00.223Z,101268.47
2022-12-24T17:13:30.131Z,101264.75
2022-12-24T17:16:04.115Z,101264.53
2022-12-24T17:18:33.968Z,101272.16
2022-12-24T17:21:05.008Z,101267.56
2022-12-24T17:23:34.724Z,101276.28
2022-12-24T17:26:10.684Z,101277.00
2022-12-24T17:28:42.555Z,101281.28
2022-12-24T17:31:17.033Z,101278.50
2022-12-24T17:33:47.035Z,101275.72
2022-12-24T17:36:16.796Z,101275.66
2022-12-24T17:38:46.629Z,101276.38
2022-12-24T17:41:19.799Z,101274.56
2022-12-24T17:43:50.613Z,101271.91
2022-12-24T17:46:25.037Z,101284.91
2022-12-24T17:48:55.129Z,101271.66
2022-12-24T17:51:26.170Z,101277.72
2022-12-24T17:53:55.971Z,101270.75
2022-12-24T17:56:25.779Z,101270.81
2022-12-24T17:58:55.601Z,101267.31
2022-12-24T18:01:30.509Z,101266.31
2022-12-24T18:04:02.124Z,101269.69
2022-12-24T18:06:32.107Z,101271.34
2022-12-24T18:09:02.025Z,101271.16
2022-12-24T18:11:34.071Z,101269.47
2022-12-24T18:14:05.423Z,101267.66
2022-12-24T18:16:40.356Z,101267.81
2022-12-24T18:19:11.368Z,101274.88
2022-12-24T18:21:41.563Z,101275.84
2022-12-24T18:24:12.005Z,101269.88
2022-12-24T18:26:42.028Z,101273.53
2022-12-24T18:29:12.633Z,101277.13
2022-12-24T18:31:45.405Z,101273.63
2022-12-24T18:34:17.680Z,101285.97
2022-12-24T18:36:54.545Z,101279.00
2022-12-24T18:39:25.039Z,101279.81
2022-12-24T18:41:54.858Z,101280.75
2022-12-24T18:44:25.761Z,101286.72
2022-12-24T18:46:58.749Z,101281.28
2022-12-24T18:49:28.753Z,101274.19
2022-12-24T18:51:58.870Z,101275.75
2022-12-24T18:54:28.627Z,101267.75
2022-12-24T18:56:58.439Z,101265.69
2022-12-24T18:59:28.186Z,101262.13
2022-12-24T19:02:00.643Z,101263.75
2022-12-24T19:04:30.494Z,101267.91
2022-12-24T19:07:00.577Z,101276.59
2022-12-24T19:09:30.355Z,101285.19
2022-12-24T19:12:00.244Z,101290.34
2022-12-24T19:14:29.982Z,101287.50
2022-12-24T19:17:02.321Z,101287.41
2022-12-24T19:19:32.045Z,101293.28
2022-12-24T19:22:01.934Z,101283.56
2022-12-24T19:24:31.829Z,101286.13
2022-12-24T19:27:01.569Z,101284.28
2022-12-24T19:29:31.324Z,101296.50
2022-12-24T19:32:03.710Z,101293.78
2022-12-24T19:34:33.570Z,101292.81
2022-12-24T19:37:04.302Z,101291.00
2022-12-24T19:39:34.147Z,101295.44
2022-12-24T19:42:04.806Z,101306.72
2022-12-24T19:44:34.515Z,101312.84
2022-12-24T19:47:06.967Z,101317.19
2022-12-24T19:49:36.697Z,101321.41
2022-12-24T19:52:06.646Z,101328.38
2022-12-24T19:54:36.544Z,101329.28
2022-12-24T19:57:06.476Z,101336.34
2022-12-24T19:59:36.454Z,101338.13
2022-12-24T20:02:09.543Z,101328.63
2022-12-24T20:04:39.644Z,101329.53
2022-12-24T20:07:09.436Z,101339.25
2022-12-24T20:09:39.260Z,101335.00
2022-12-24T20:12:10.123Z,101329.78
2022-12-24T20:14:39.902Z,101326.44
2022-12-24T20:17:12.264Z,101323.91
2022-12-24T20:19:42.197Z,101319.66
2022-12-24T20:22:12.475Z,101322.28
2022-12-24T20:24:42.309Z,101324.91
2022-12-24T20:27:12.014Z,101329.19
2022-12-24T20:29:41.811Z,101334.44
2022-12-24T20:32:14.299Z,101334.44
2022-12-24T20:34:44.082Z,101337.00
2022-12-24T20:37:13.804Z,101336.00
2022-12-24T20:39:44.681Z,101337.56
2022-12-24T20:42:14.500Z,101347.94
2022-12-24T20:44:44.468Z,101345.16
2022-12-24T20:47:16.837Z,101341.56
2022-12-24T20:49:46.678Z,101334.34
2022-12-24T20:52:16.462Z,101334.19
2022-12-24T20:54:46.298Z,101330.59
2022-12-24T20:57:21.656Z,101330.31
2022-12-24T20:59:54.618Z,101327.50
2022-12-24T21:02:27.043Z,101319.44
2022-12-24T21:05:01.917Z,101323.72
2022-12-24T21:07:32.257Z,101324.34
2022-12-24T21:10:02.096Z,101325.97
2022-12-24T21:12:56.284Z,101325.00
2022-12-24T21:15:28.613Z,101316.97
2022-12-24T21:18:01.756Z,101316.97
2022-12-24T21:20:32.735Z,101316.81
2022-12-24T21:23:03.754Z,101319.50
2022-12-24T21:25:33.600Z,101319.44
2022-12-24T21:28:04.301Z,101317.63
2022-12-24T21:30:35.070Z,101308.88
2022-12-24T21:33:07.515Z,101301.13
2022-12-24T21:35:37.305Z,101301.13
2022-12-24T21:38:07.128Z,101305.53
2022-12-24T21:40:36.999Z,101303.75
2022-12-24T21:43:07.602Z,101296.78
2022-12-24T21:45:37.450Z,101293.34
2022-12-24T21:48:31.912Z,101286.50
2022-12-24T21:50:59.072Z,101290.09
2022-12-24T21:53:41.247Z,101291.97
2022-12-24T21:56:12.992Z,101280.78
2022-12-24T21:58:40.122Z,101289.72
2022-12-24T22:01:11.209Z,101290.66
2022-12-24T22:03:43.846Z,101297.88
2022-12-24T22:06:36.139Z,101303.22
2022-12-24T22:09:18.800Z,101299.66
2022-12-24T22:11:54.672Z,101308.44
2022-12-24T22:14:24.939Z,101313.69
2022-12-24T22:16:54.848Z,101330.25
2022-12-24T22:19:27.659Z,101338.19
2022-12-24T22:21:57.453Z,101336.56
2022-12-24T22:24:28.063Z,101339.25
2022-12-24T22:26:57.901Z,101337.53
2022-12-24T22:29:28.111Z,101352.41
2022-12-24T22:31:57.812Z,101345.50
2022-12-24T22:34:31.737Z,101340.31
2022-12-24T22:37:01.422Z,101341.22
2022-12-24T22:39:31.238Z,101347.44
2022-12-24T22:42:01.022Z,101334.34
2022-12-24T22:44:30.987Z,101338.84
2022-12-24T22:47:00.698Z,101337.22
2022-12-24T22:49:33.714Z,101335.59
2022-12-24T22:52:03.474Z,101322.56
2022-12-24T22:54:33.339Z,101325.38
2022-12-24T22:57:03.162Z,101313.19
2022-12-24T22:59:32.907Z,101308.84
2022-12-24T23:02:03.074Z,101315.91
2022-12-24T23:04:37.901Z,101316.94
2022-12-24T23:07:07.950Z,101313.34
2022-12-24T23:09:38.387Z,101315.22
2022-12-24T23:12:09.043Z,101303.94
2022-12-24T23:14:51.201Z,101300.50
2022-12-24T23:17:20.917Z,101311.88
2022-12-24T23:19:53.300Z,101315.31
2022-12-24T23:22:23.010Z,101310.09
2022-12-24T23:24:52.758Z,101313.59
2022-12-24T23:27:22.487Z,101319.66
2022-12-24T23:29:52.214Z,101328.47
2022-12-24T23:32:23.449Z,101323.22
2022-12-24T23:34:55.785Z,101319.81
2022-12-24T23:37:31.040Z,101324.22
2022-12-24T23:40:04.524Z,101322.50
2022-12-24T23:42:34.262Z,101317.34
2022-12-24T23:45:04.050Z,101324.31
2022-12-24T23:47:33.787Z,101311.22
2022-12-24T23:50:07.305Z,101305.16
2022-12-24T23:52:37.052Z,101311.28
2022-12-24T23:55:08.133Z,101313.91
2022-12-24T23:57:37.921Z,101306.03
